createdAt,value
2022-11-22T00:01:29.133Z,10.33
2022-11-22T00:04:00.657Z,12.63
2022-11-22T00:06:30.628Z,10.20
2022-11-22T00:08:57.725Z,12.83
2022-11-22T00:11:24.823Z,10.43
2022-11-22T00:13:54.580Z,12.70
2022-11-22T00:16:23.744Z,14.53
2022-11-22T00:18:53.146Z,9.93
2022-11-22T00:21:20.245Z,12.63
2022-11-22T00:23:47.428Z,12.00
2022-11-22T00:26:15.027Z,12.87
2022-11-22T00:28:44.578Z,11.07
2022-11-22T00:31:11.760Z,8.20
2022-11-22T00:33:41.370Z,11.73
2022-11-22T00:36:08.464Z,13.53
2022-11-22T00:38:37.865Z,11.53
2022-11-22T00:41:05.302Z,11.03
2022-11-22T00:43:34.536Z,12.03
2022-11-22T00:46:06.054Z,10.37
2022-11-22T00:48:33.326Z,12.47
2022-11-22T00:51:07.366Z,8.63
2022-11-22T00:53:34.456Z,13.17
2022-11-22T00:56:04.027Z,14.57
2022-11-22T00:58:34.740Z,12.93
2022-11-22T01:01:04.135Z,12.33
2022-11-22T01:03:31.288Z,16.37
2022-11-22T01:05:58.451Z,16.27
2022-11-22T01:08:27.631Z,11.40
2022-11-22T01:11:01.253Z,16.17
2022-11-22T01:13:30.227Z,12.57
2022-11-22T01:16:06.510Z,11.13
2022-11-22T01:18:38.300Z,16.23
2022-11-22T01:21:06.038Z,14.53
2022-11-22T01:23:38.483Z,14.10
2022-11-22T01:26:09.207Z,15.27
2022-11-22T01:28:36.544Z,14.10
2022-11-22T01:31:05.856Z,11.20
2022-11-22T01:33:35.486Z,11.27
2022-11-22T01:36:05.260Z,12.30
2022-11-22T01:38:34.464Z,17.67
2022-11-22T01:41:09.025Z,14.43
2022-11-22T01:43:36.161Z,12.63
2022-11-22T01:46:09.986Z,14.40
2022-11-22T01:48:46.126Z,13.80
2022-11-22T01:51:29.726Z,16.70
2022-11-22T01:54:02.664Z,11.30
2022-11-22T01:56:33.298Z,15.87
2022-11-22T01:59:06.121Z,13.77
2022-11-22T02:01:33.952Z,13.20
2022-11-22T02:04:04.295Z,12.47
2022-11-22T02:07:21.644Z,7.63
2022-11-22T02:09:52.430Z,11.33
2022-11-22T02:12:26.998Z,8.23
2022-11-22T02:14:54.890Z,11.87
2022-11-22T02:17:24.806Z,9.87
2022-11-22T02:19:57.733Z,12.40
2022-11-22T02:22:49.364Z,11.70
2022-11-22T02:25:30.784Z,7.33
2022-11-22T02:27:58.068Z,10.77
2022-11-22T02:30:29.549Z,10.27
2022-11-22T02:32:56.633Z,11.67
2022-11-22T02:35:28.375Z,13.90
2022-11-22T02:38:03.561Z,13.27
2022-11-22T02:40:34.894Z,11.20
2022-11-22T02:43:21.621Z,9.60
2022-11-22T02:45:48.722Z,9.07
2022-11-22T02:48:18.105Z,11.90
2022-11-22T02:50:47.600Z,6.87
2022-11-22T02:53:19.390Z,9.00
2022-11-22T02:55:46.548Z,8.43
2022-11-22T02:58:16.082Z,12.13
2022-11-22T03:00:43.274Z,8.23
2022-11-22T03:03:13.363Z,9.30
2022-11-22T03:05:42.828Z,11.90
2022-11-22T03:08:12.239Z,6.90
2022-11-22T03:10:43.685Z,6.13
2022-11-22T03:13:13.245Z,5.57
2022-11-22T03:15:40.429Z,10.27
2022-11-22T03:18:07.564Z,8.77
2022-11-22T03:20:36.769Z,7.40
2022-11-22T03:23:03.919Z,12.63
2022-11-22T03:25:31.073Z,7.53
2022-11-22T03:28:00.638Z,12.13
2022-11-22T03:30:29.811Z,9.97
2022-11-22T03:33:01.243Z,10.40
2022-11-22T03:35:28.483Z,9.67
2022-11-22T03:37:57.786Z,10.27
2022-11-22T03:40:27.215Z,7.07
2022-11-22T03:43:00.171Z,10.83
2022-11-22T03:45:28.379Z,8.40
2022-11-22T03:47:58.246Z,8.90
2022-11-22T03:50:25.406Z,9.97
2022-11-22T03:52:57.169Z,9.13
2022-11-22T03:55:26.898Z,10.00
2022-11-22T03:57:56.324Z,8.93
2022-11-22T04:00:23.732Z,7.03
2022-11-22T04:02:53.625Z,5.60
2022-11-22T04:05:23.037Z,9.13
2022-11-22T04:07:57.165Z,5.07
2022-11-22T04:10:26.880Z,8.37
2022-11-22T04:13:02.635Z,8.80
2022-11-22T04:15:31.975Z,13.53
2022-11-22T04:17:59.074Z,8.37
2022-11-22T04:20:48.763Z,7.27
2022-11-22T04:23:20.976Z,6.87
2022-11-22T04:25:50.139Z,8.73
2022-11-22T04:29:07.860Z,10.27
2022-11-22T04:31:33.907Z,4.77
2022-11-22T04:34:01.007Z,5.83
2022-11-22T04:36:32.632Z,10.67
2022-11-22T04:38:59.799Z,7.63
2022-11-22T04:41:31.687Z,6.70
2022-11-22T04:44:17.649Z,7.30
2022-11-22T04:46:47.251Z,6.67
2022-11-22T04:49:14.364Z,7.70
2022-11-22T04:52:02.749Z,7.73
2022-11-22T04:54:32.154Z,6.33
2022-11-22T04:56:59.218Z,9.07
2022-11-22T04:59:26.295Z,4.57
2022-11-22T05:01:55.534Z,8.80
2022-11-22T05:04:22.624Z,11.17
2022-11-22T05:06:49.841Z,10.30
2022-11-22T05:09:19.469Z,8.70
2022-11-22T05:11:49.848Z,7.07
2022-11-22T05:14:23.671Z,11.50
2022-11-22T05:16:50.817Z,7.37
2022-11-22T05:19:17.875Z,7.67
2022-11-22T05:21:47.607Z,8.83
2022-11-22T05:24:19.490Z,9.23
2022-11-22T05:26:46.654Z,11.50
2022-11-22T05:29:15.885Z,6.73
2022-11-22T05:31:48.225Z,9.60
2022-11-22T05:34:22.901Z,12.70
2022-11-22T05:36:52.076Z,8.30
2022-11-22T05:39:19.160Z,7.73
2022-11-22T05:41:55.959Z,7.27
2022-11-22T05:44:25.345Z,4.97
2022-11-22T05:46:52.452Z,5.77
2022-11-22T05:49:23.693Z,11.43
2022-11-22T05:51:51.482Z,10.53
2022-11-22T05:54:18.610Z,6.60
2022-11-22T05:56:45.801Z,11.30
2022-11-22T05:59:15.121Z,6.97
2022-11-22T06:01:44.852Z,7.40
2022-11-22T06:04:14.601Z,6.00
2022-11-22T06:06:41.726Z,8.50
2022-11-22T06:09:11.335Z,6.57
2022-11-22T06:11:40.820Z,8.40
2022-11-22T06:14:11.596Z,6.20
2022-11-22T06:16:41.058Z,7.70
2022-11-22T06:19:08.231Z,7.83
2022-11-22T06:21:37.580Z,7.30
2022-11-22T06:24:07.292Z,6.60
2022-11-22T06:26:39.468Z,8.07
2022-11-22T06:29:06.845Z,6.63
2022-11-22T06:31:37.091Z,7.30
2022-11-22T06:34:04.287Z,4.70
2022-11-22T06:36:34.679Z,8.93
2022-11-22T06:39:03.776Z,6.57
2022-11-22T06:41:37.146Z,6.30
2022-11-22T06:44:07.037Z,5.10
2022-11-22T06:46:37.500Z,6.13
2022-11-22T06:49:11.840Z,3.60
2022-11-22T06:51:43.417Z,7.20
2022-11-22T06:54:11.460Z,7.33
2022-11-22T06:56:40.581Z,6.83
2022-11-22T06:59:10.822Z,5.17
2022-11-22T07:01:41.253Z,8.63
2022-11-22T07:04:08.505Z,12.13
2022-11-22T07:06:38.945Z,5.60
2022-11-22T07:09:10.818Z,4.27
2022-11-22T07:11:39.473Z,7.93
2022-11-22T07:14:08.864Z,6.83
2022-11-22T07:16:38.025Z,9.07
2022-11-22T07:19:08.120Z,8.33
2022-11-22T07:21:37.772Z,7.37
2022-11-22T07:24:08.040Z,4.57
2022-11-22T07:26:35.163Z,5.37
2022-11-22T07:29:07.137Z,6.63
2022-11-22T07:31:38.649Z,7.80
2022-11-22T07:34:05.836Z,6.93
2022-11-22T07:36:33.021Z,6.50
2022-11-22T07:39:02.856Z,7.83
2022-11-22T07:41:32.122Z,6.50
2022-11-22T07:44:01.349Z,7.07
2022-11-22T07:46:33.013Z,6.77
2022-11-22T07:49:07.411Z,7.73
2022-11-22T07:51:34.572Z,7.13
2022-11-22T07:54:13.846Z,6.93
2022-11-22T07:56:45.567Z,4.40
2022-11-22T07:59:17.022Z,5.23
2022-11-22T08:01:44.479Z,6.53
2022-11-22T08:04:11.617Z,5.43
2022-11-22T08:06:40.954Z,7.97
2022-11-22T08:09:10.741Z,5.93
2022-11-22T08:11:37.843Z,7.10
2022-11-22T08:14:05.001Z,6.23
2022-11-22T08:16:34.395Z,4.37
2022-11-22T08:19:07.055Z,5.97
2022-11-22T08:21:34.282Z,8.80
2022-11-22T08:24:04.067Z,8.90
2022-11-22T08:26:32.839Z,6.97
2022-11-22T08:29:00.277Z,4.93
2022-11-22T08:31:29.946Z,7.40
2022-11-22T08:33:57.213Z,7.87
2022-11-22T08:36:24.727Z,7.20
2022-11-22T08:38:51.792Z,11.60
2022-11-22T08:41:21.755Z,6.33
2022-11-22T08:43:53.070Z,7.07
2022-11-22T08:46:20.485Z,6.87
2022-11-22T08:48:47.638Z,8.57
2022-11-22T08:51:14.827Z,7.57
2022-11-22T08:53:43.221Z,8.20
2022-11-22T08:56:14.701Z,8.47
2022-11-22T08:58:42.315Z,4.87
2022-11-22T09:01:15.534Z,11.20
2022-11-22T09:03:48.147Z,10.40
2022-11-22T09:09:35.926Z,5.40
2022-11-22T09:11:56.072Z,8.80
2022-11-22T09:14:23.297Z,9.20
2022-11-22T09:16:50.413Z,8.77
2022-11-22T09:19:19.632Z,6.00
2022-11-22T09:21:46.806Z,6.17
2022-11-22T09:24:13.944Z,7.43
2022-11-22T09:26:43.477Z,9.13
2022-11-22T09:29:10.567Z,3.93
2022-11-22T09:31:42.791Z,4.87
2022-11-22T09:34:12.505Z,4.10
2022-11-22T09:36:39.705Z,3.63
2022-11-22T09:39:09.531Z,4.60
2022-11-22T09:41:52.175Z,5.10
2022-11-22T09:44:42.657Z,7.20
2022-11-22T09:47:09.734Z,4.03
2022-11-22T09:49:51.803Z,4.63
2022-11-22T09:52:30.737Z,2.10
2022-11-22T09:55:01.964Z,3.40
2022-11-22T09:57:36.038Z,2.53
2022-11-22T10:00:10.925Z,4.03
2022-11-22T10:03:00.027Z,3.17
2022-11-22T10:06:06.733Z,5.90
2022-11-22T10:08:55.307Z,2.97
2022-11-22T10:11:37.102Z,5.90
2022-11-22T10:14:43.314Z,3.30
2022-11-22T10:17:35.194Z,3.33
2022-11-22T10:20:08.038Z,2.30
2022-11-22T10:22:35.579Z,2.93
2022-11-22T10:25:23.309Z,5.67
2022-11-22T10:28:00.354Z,3.13
2022-11-22T10:30:37.249Z,4.70
2022-11-22T10:33:18.980Z,3.07
2022-11-22T10:36:13.123Z,2.57
2022-11-22T10:38:48.402Z,4.93
2022-11-22T10:41:37.106Z,1.97
2022-11-22T10:44:46.307Z,2.33
2022-11-22T10:47:24.870Z,3.07
2022-11-22T10:50:18.889Z,3.40
2022-11-22T10:52:54.825Z,3.10
2022-11-22T10:55:36.993Z,2.67
2022-11-22T10:58:29.130Z,1.30
2022-11-22T11:01:12.762Z,2.80
2022-11-22T11:03:43.916Z,1.50
2022-11-22T11:06:33.404Z,2.07
2022-11-22T11:10:09.269Z,2.43
2022-11-22T11:12:36.797Z,1.77
2022-11-22T11:15:13.012Z,2.43
2022-11-22T11:17:42.070Z,2.33
2022-11-22T11:20:22.897Z,2.80
2022-11-22T11:23:13.843Z,2.63
2022-11-22T11:25:42.722Z,1.30
2022-11-22T11:28:27.390Z,3.37
2022-11-22T11:31:13.302Z,2.90
2022-11-22T11:33:41.635Z,2.97
2022-11-22T11:36:17.154Z,1.80
2022-11-22T11:38:44.341Z,2.30
2022-11-22T11:41:26.318Z,1.50
2022-11-22T11:43:55.949Z,1.87
2022-11-22T11:46:26.969Z,1.10
2022-11-22T11:49:13.560Z,1.97
2022-11-22T11:52:01.403Z,2.63
2022-11-22T11:54:54.119Z,2.27
2022-11-22T11:57:44.122Z,2.03
2022-11-22T12:00:25.751Z,3.20
2022-11-22T12:03:02.105Z,1.93
2022-11-22T12:05:31.833Z,2.27
2022-11-22T12:08:01.864Z,4.37
2022-11-22T12:10:40.321Z,1.30
2022-11-22T12:16:49.164Z,1.83
2022-11-22T12:19:57.730Z,3.67
2022-11-22T12:25:40.969Z,2.60
2022-11-22T12:28:20.238Z,4.27
2022-11-22T12:30:59.479Z,1.10
2022-11-22T12:33:33.644Z,1.23
2022-11-22T12:36:05.192Z,1.70
2022-11-22T12:38:42.265Z,1.37
2022-11-22T12:41:18.628Z,0.70
2022-11-22T12:43:59.957Z,2.70
2022-11-22T12:46:44.257Z,1.00
2022-11-22T12:48:23.761Z,1.53
2022-11-22T12:49:42.878Z,2.77
2022-11-22T12:52:18.161Z,3.70
2022-11-22T12:55:03.215Z,1.37
2022-11-22T12:58:02.178Z,0.93
2022-11-22T13:00:37.237Z,1.27
2022-11-22T13:03:21.016Z,1.93
2022-11-22T13:05:56.815Z,3.20
2022-11-22T13:08:54.786Z,1.80
2022-11-22T13:11:41.767Z,1.53
2022-11-22T13:14:21.027Z,0.77
2022-11-22T13:16:52.785Z,2.57
2022-11-22T13:19:26.704Z,0.80
2022-11-22T13:22:25.905Z,1.00
2022-11-22T13:25:19.503Z,1.30
2022-11-22T13:27:50.472Z,2.50
2022-11-22T13:30:23.218Z,1.00
2022-11-22T13:33:01.361Z,1.53
2022-11-22T13:35:38.537Z,1.47
2022-11-22T13:38:12.556Z,1.40
2022-11-22T13:40:50.518Z,1.07
2022-11-22T13:43:22.494Z,2.10
2022-11-22T13:45:50.739Z,0.90
2022-11-22T13:48:39.408Z,1.93
2022-11-22T13:51:09.667Z,2.90
2022-11-22T13:53:42.705Z,3.47
2022-11-22T13:56:16.245Z,4.33
2022-11-22T13:58:52.331Z,3.03
2022-11-22T14:01:34.935Z,1.80
2022-11-22T14:04:16.750Z,1.77
2022-11-22T14:07:25.370Z,1.57
2022-11-22T14:09:52.468Z,2.77
2022-11-22T14:12:33.755Z,1.13
2022-11-22T14:15:27.336Z,1.10
2022-11-22T14:18:13.222Z,5.57
2022-11-22T14:20:48.821Z,2.10
2022-11-22T14:23:49.306Z,2.30
2022-11-22T14:26:36.155Z,5.47
2022-11-22T14:29:22.189Z,1.80
2022-11-22T14:32:04.205Z,3.67
2022-11-22T14:35:05.830Z,2.63
2022-11-22T14:37:47.130Z,2.87
2022-11-22T14:40:34.049Z,3.33
2022-11-22T14:43:11.967Z,3.10
2022-11-22T14:45:42.547Z,1.60
2022-11-22T14:48:18.971Z,3.40
2022-11-22T14:51:09.568Z,3.00
2022-11-22T14:53:43.777Z,2.17
2022-11-22T14:56:27.603Z,3.07
2022-11-22T14:59:03.340Z,2.87
2022-11-22T15:01:37.198Z,6.80
2022-11-22T15:09:10.831Z,2.60
2022-11-22T15:09:16.807Z,1.90
2022-11-22T15:11:12.007Z,3.60
2022-11-22T15:14:18.107Z,2.73
2022-11-22T15:57:34.500Z,4.97
2022-11-22T16:00:02.335Z,4.23
2022-11-22T16:02:31.788Z,4.60
2022-11-22T16:06:09.566Z,5.03
2022-11-22T16:08:00.888Z,7.57
2022-11-22T16:10:37.361Z,4.40
2022-11-22T16:13:20.745Z,4.77
2022-11-22T16:16:13.115Z,6.60
2022-11-22T16:18:41.597Z,5.30
2022-11-22T16:21:11.811Z,7.93
2022-11-22T16:23:40.540Z,4.27
2022-11-22T16:26:29.225Z,7.57
2022-11-22T16:29:35.653Z,11.27
2022-11-22T16:32:19.856Z,8.17
2022-11-22T16:35:03.265Z,11.83
2022-11-22T16:37:48.165Z,9.83
2022-11-22T16:40:16.103Z,8.93
2022-11-22T16:42:47.731Z,7.23
2022-11-22T16:45:18.082Z,11.17
2022-11-22T16:47:58.535Z,8.27
2022-11-22T16:50:39.136Z,7.13
2022-11-22T16:53:16.451Z,9.50
2022-11-22T16:55:44.673Z,8.73
2022-11-22T16:58:14.732Z,10.27
2022-11-22T17:00:44.763Z,8.13
2022-11-22T17:03:18.833Z,10.17
2022-11-22T17:05:50.721Z,9.50
2022-11-22T17:08:22.640Z,9.73
2022-11-22T17:10:52.109Z,9.33
2022-11-22T17:13:27.851Z,13.90
2022-11-22T17:15:56.782Z,10.13
2022-11-22T17:18:25.969Z,6.90
2022-11-22T17:20:55.542Z,11.53
2022-11-22T17:23:30.624Z,10.47
2022-11-22T17:25:57.893Z,12.57
2022-11-22T17:28:25.081Z,10.07
2022-11-22T17:30:52.422Z,7.40
2022-11-22T17:33:19.626Z,8.73
2022-11-22T17:35:49.290Z,11.73
2022-11-22T17:38:16.395Z,7.83
2022-11-22T17:40:44.872Z,8.93
2022-11-22T17:43:14.808Z,9.57
2022-11-22T17:45:43.308Z,8.80
2022-11-22T17:48:13.175Z,9.20
2022-11-22T17:50:42.677Z,9.70
2022-11-22T17:53:09.791Z,10.60
2022-11-22T17:56:02.700Z,10.10
2022-11-22T17:58:28.672Z,8.63
2022-11-22T18:01:10.352Z,9.53
2022-11-22T18:03:38.295Z,9.00
2022-11-22T18:06:08.961Z,10.47
2022-11-22T18:08:41.377Z,7.30
2022-11-22T18:11:12.527Z,9.10
2022-11-22T18:13:44.563Z,11.40
2022-11-22T18:16:17.492Z,10.90
2022-11-22T18:19:00.792Z,9.43
2022-11-22T18:21:32.175Z,11.50
2022-11-22T18:24:02.026Z,8.73
2022-11-22T18:26:44.935Z,9.90
2022-11-22T18:32:06.136Z,10.67
2022-11-22T18:34:33.407Z,10.17
2022-11-22T18:37:03.043Z,11.00
2022-11-22T18:39:35.525Z,11.70
2022-11-22T18:42:10.398Z,7.40
2022-11-22T18:44:40.068Z,8.40
2022-11-22T18:47:09.956Z,13.33
2022-11-22T18:49:37.567Z,13.03
2022-11-22T18:52:07.519Z,8.10
2022-11-22T18:54:36.066Z,10.47
2022-11-22T18:57:07.783Z,8.90
2022-11-22T18:59:34.903Z,12.83
2022-11-22T19:02:02.034Z,9.13
2022-11-22T19:04:31.886Z,10.20
2022-11-22T19:07:01.386Z,8.63
2022-11-22T19:09:33.280Z,10.57
2022-11-22T19:12:00.474Z,10.13
2022-11-22T19:14:30.557Z,8.13
2022-11-22T19:17:00.258Z,9.13
2022-11-22T19:19:27.698Z,8.73
2022-11-22T19:21:59.512Z,7.47
2022-11-22T19:24:26.740Z,9.83
2022-11-22T19:26:53.918Z,9.83
2022-11-22T19:29:25.840Z,10.40
2022-11-22T19:31:57.687Z,6.90
2022-11-22T19:34:24.806Z,13.33
2022-11-22T19:36:51.939Z,11.37
2022-11-22T19:39:20.365Z,6.50
2022-11-22T19:41:49.814Z,8.73
2022-11-22T19:44:19.139Z,8.97
2022-11-22T19:46:46.311Z,5.73
2022-11-22T19:49:16.024Z,8.43
2022-11-22T19:51:43.127Z,8.70
2022-11-22T19:54:10.291Z,7.43
2022-11-22T19:56:39.976Z,7.03
2022-11-22T19:59:10.338Z,5.73
2022-11-22T20:01:45.153Z,7.87
2022-11-22T20:04:15.901Z,6.17
2022-11-22T20:06:47.180Z,9.27
2022-11-22T20:09:19.297Z,11.40
2022-11-22T20:11:46.927Z,7.87
2022-11-22T20:14:16.753Z,7.03
2022-11-22T20:16:43.971Z,5.87
2022-11-22T20:19:12.384Z,6.33
2022-11-22T20:21:40.256Z,4.97
2022-11-22T20:24:07.843Z,7.47
2022-11-22T20:26:37.813Z,7.53
2022-11-22T20:29:09.873Z,7.50
2022-11-22T20:31:40.865Z,5.70
2022-11-22T20:34:09.255Z,8.10
2022-11-22T20:36:36.476Z,8.70
2022-11-22T20:39:10.462Z,5.80
2022-11-22T20:41:40.690Z,7.67
2022-11-22T20:44:13.601Z,6.83
2022-11-22T20:46:41.414Z,7.73
2022-11-22T20:49:13.674Z,8.77
2022-11-22T20:51:45.694Z,5.13
2022-11-22T20:54:15.260Z,7.33
2022-11-22T20:56:42.424Z,5.33
2022-11-22T20:59:12.150Z,8.33
2022-11-22T21:01:43.716Z,7.07
2022-11-22T21:04:10.938Z,4.90
2022-11-22T21:06:40.812Z,6.30
2022-11-22T21:09:11.060Z,7.97
2022-11-22T21:11:39.413Z,5.37
2022-11-22T21:14:11.414Z,6.53
2022-11-22T21:16:39.014Z,7.47
2022-11-22T21:19:08.886Z,8.07
2022-11-22T21:21:37.127Z,7.90
2022-11-22T21:24:06.249Z,7.33
2022-11-22T21:26:35.660Z,10.17
2022-11-22T21:29:15.907Z,11.30
2022-11-22T21:31:43.764Z,7.67
2022-11-22T21:34:13.727Z,7.97
2022-11-22T21:36:40.814Z,9.13
2022-11-22T21:39:10.278Z,7.67
2022-11-22T21:41:40.159Z,8.20
2022-11-22T21:44:12.912Z,10.33
2022-11-22T21:46:40.091Z,9.53
2022-11-22T21:49:09.742Z,5.90
2022-11-22T21:51:36.858Z,9.40
2022-11-22T21:54:06.884Z,11.80
2022-11-22T21:56:34.564Z,7.73
2022-11-22T21:59:01.875Z,6.83
2022-11-22T22:01:31.936Z,8.50
2022-11-22T22:03:59.131Z,8.30
2022-11-22T22:06:26.324Z,8.90
2022-11-22T22:08:53.603Z,7.13
2022-11-22T22:11:23.503Z,7.10
2022-11-22T22:13:58.965Z,9.10
2022-11-22T22:16:26.339Z,7.67
2022-11-22T22:18:54.104Z,6.07
2022-11-22T22:21:23.485Z,8.17
2022-11-22T22:23:53.687Z,5.40
2022-11-22T22:26:20.842Z,6.57
2022-11-22T22:28:51.916Z,10.13
2022-11-22T22:31:22.367Z,9.27
2022-11-22T22:33:52.799Z,6.87
2022-11-22T22:36:23.017Z,7.70
2022-11-22T22:38:50.703Z,6.63
2022-11-22T22:41:18.259Z,9.83
2022-11-22T22:43:47.574Z,10.70
2022-11-22T22:46:22.191Z,7.20
2022-11-22T22:48:49.887Z,7.27
2022-11-22T22:51:32.667Z,6.10
2022-11-22T22:54:01.621Z,7.40
2022-11-22T22:56:33.976Z,6.53
2022-11-22T22:59:01.394Z,9.33
2022-11-22T23:01:31.050Z,6.87
2022-11-22T23:04:04.316Z,8.63
2022-11-22T23:06:41.005Z,8.63
2022-11-22T23:09:10.734Z,7.33
2022-11-22T23:11:58.868Z,9.07
2022-11-22T23:14:32.508Z,6.50
2022-11-22T23:16:59.852Z,9.73
2022-11-22T23:19:29.573Z,8.73
2022-11-22T23:22:01.854Z,8.13
2022-11-22T23:24:33.314Z,9.53
2022-11-22T23:27:02.923Z,7.70
2022-11-22T23:29:30.354Z,10.97
2022-11-22T23:32:00.247Z,6.90
2022-11-22T23:34:30.800Z,9.53
2022-11-22T23:36:57.940Z,5.63
2022-11-22T23:39:27.185Z,10.93
2022-11-22T23:41:54.281Z,8.17
2022-11-22T23:44:21.523Z,8.10
2022-11-22T23:46:48.599Z,9.83
2022-11-22T23:49:20.009Z,6.73
2022-11-22T23:51:52.084Z,4.80
2022-11-22T23:54:21.692Z,9.37
2022-11-22T23:56:51.090Z,5.83
2022-11-22T23:59:21.672Z,7.83
